Time;durP1;ratioP1;P1;durP2;ratioP2;P2;SDS_P1;SDS_P2;PMS_P1;PMS_P2;Temp;Humidity;BMP_temperature;BMP_pressure;BME280_temperature;BME280_humidity;BME280_pressure;Samples;Min_cycle;Max_cycle;Signal;HPM_P1;HPM_P2
2021/12/06 00:00:58;;;;;;;6.50;4.27;;;7.00;99.90;;;;;;5007351;28;20219;-85
2021/12/06 00:03:35;;;;;;;7.70;4.23;;;7.20;99.90;;;;;;5005343;28;20467;-86
2021/12/06 00:06:04;;;;;;;6.80;4.30;;;7.00;99.90;;;;;;5001215;28;21034;-85
2021/12/06 00:08:32;;;;;;;4.97;3.83;;;6.90;99.90;;;;;;5011052;28;20474;-85
2021/12/06 00:11:06;;;;;;;6.43;3.13;;;7.00;99.90;;;;;;5001824;28;21016;-85
2021/12/06 00:13:35;;;;;;;5.60;3.00;;;7.20;99.90;;;;;;4998420;28;20965;-86
2021/12/06 00:16:09;;;;;;;3.65;3.35;;;7.00;99.90;;;;;;4999739;28;20450;-84
2021/12/06 00:18:37;;;;;;;5.23;3.67;;;6.90;99.90;;;;;;5001963;28;20230;-85
2021/12/06 00:21:07;;;;;;;4.37;3.23;;;7.00;99.90;;;;;;5002902;28;20491;-83
2021/12/06 00:23:36;;;;;;;6.77;3.73;;;7.00;99.90;;;;;;5000616;28;20901;-84
2021/12/06 00:26:05;;;;;;;8.05;3.72;;;7.00;99.90;;;;;;5000686;28;20481;-84
2021/12/06 00:28:34;;;;;;;3.60;3.20;;;7.00;99.90;;;;;;5000174;28;20221;-86
2021/12/06 00:31:03;;;;;;;5.33;3.90;;;7.00;99.90;;;;;;5002043;28;20489;-85
2021/12/06 00:33:33;;;;;;;5.30;2.63;;;7.00;99.90;;;;;;4998616;28;20463;-85
2021/12/06 00:36:07;;;;;;;3.03;2.70;;;7.00;99.90;;;;;;5002817;28;20511;-85
2021/12/06 00:38:37;;;;;;;5.10;3.40;;;6.90;99.90;;;;;;5001030;28;20449;-86
2021/12/06 00:41:05;;;;;;;4.50;3.60;;;7.00;99.90;;;;;;5005558;28;21016;-85
2021/12/06 00:43:33;;;;;;;9.03;3.23;;;6.90;99.90;;;;;;4996148;28;20464;-84
2021/12/06 00:46:02;;;;;;;3.70;2.83;;;7.00;99.90;;;;;;5000057;28;20477;-83
2021/12/06 00:48:30;;;;;;;4.70;4.17;;;6.90;99.90;;;;;;5002759;28;20472;-83
2021/12/06 00:51:00;;;;;;;3.33;3.03;;;7.10;99.90;;;;;;5004721;28;20477;-84
2021/12/06 00:53:28;;;;;;;4.90;3.40;;;6.90;99.90;;;;;;5001822;28;20531;-85
2021/12/06 00:55:57;;;;;;;3.70;3.40;;;6.90;99.90;;;;;;5003112;28;20454;-85
2021/12/06 00:58:27;;;;;;;3.57;3.20;;;6.90;99.90;;;;;;4999592;28;20460;-83
2021/12/06 01:00:56;;;;;;;4.10;3.70;;;7.00;99.90;;;;;;4999393;28;20481;-84
2021/12/06 01:03:27;;;;;;;2.67;2.47;;;6.90;99.90;;;;;;5003043;28;21031;-83
2021/12/06 01:05:56;;;;;;;3.97;3.07;;;6.90;99.90;;;;;;5001423;28;20811;-85
2021/12/06 01:08:26;;;;;;;4.50;3.30;;;6.90;99.90;;;;;;4997334;28;20461;-83
2021/12/06 01:10:55;;;;;;;5.17;2.93;;;6.90;99.90;;;;;;5001986;28;20484;-84
2021/12/06 01:13:24;;;;;;;3.27;2.97;;;6.80;99.90;;;;;;4996287;28;20447;-84
2021/12/06 01:15:52;;;;;;;3.40;3.10;;;6.90;99.90;;;;;;5001446;28;20766;-84
2021/12/06 01:18:21;;;;;;;3.37;3.10;;;6.90;99.90;;;;;;4999578;28;20452;-84
2021/12/06 01:20:55;;;;;;;5.80;3.50;;;6.90;99.90;;;;;;5001752;28;21081;-83
2021/12/06 01:23:30;;;;;;;4.60;3.10;;;6.90;99.90;;;;;;5000757;28;20487;-84
2021/12/06 01:26:15;;;;;;;3.60;2.83;;;6.90;99.90;;;;;;5000556;28;20473;-85
2021/12/06 01:31:40;;;;;;;4.50;3.10;;;6.90;99.90;;;;;;5001890;28;20468;-82
2021/12/06 01:39:09;;;;;;;4.70;3.20;;;6.90;99.90;;;;;;4998559;28;20461;-84
2021/12/06 01:39:50;;;;;;;3.33;3.13;;;6.90;99.90;;;;;;4997856;28;20512;-83
2021/12/06 01:42:19;;;;;;;3.90;2.80;;;6.90;99.90;;;;;;4996489;28;20532;-82
2021/12/06 01:44:53;;;;;;;4.33;3.40;;;7.20;99.90;;;;;;5000110;28;20924;-82
2021/12/06 01:47:24;;;;;;;4.37;3.50;;;6.90;99.90;;;;;;5000769;28;20838;-83
2021/12/06 01:49:56;;;;;;;6.10;3.40;;;6.90;99.90;;;;;;5000153;28;20477;-83
2021/12/06 01:52:28;;;;;;;3.50;3.20;;;7.10;99.90;;;;;;5002096;28;20466;-84
2021/12/06 01:54:59;;;;;;;4.00;3.00;;;6.90;99.90;;;;;;4999840;28;20498;-83
2021/12/06 01:57:29;;;;;;;3.43;2.90;;;7.00;99.90;;;;;;5008006;28;20461;-82
2021/12/06 01:59:58;;;;;;;7.10;4.00;;;6.90;99.90;;;;;;4999421;28;20488;-83
2021/12/06 02:02:30;;;;;;;5.70;4.10;;;6.90;99.90;;;;;;4999088;28;20466;-83
2021/12/06 02:04:59;;;;;;;4.70;3.00;;;6.90;99.90;;;;;;5001673;28;20449;-82
2021/12/06 02:07:28;;;;;;;4.77;3.30;;;6.90;99.90;;;;;;4998933;28;20490;-84
2021/12/06 02:09:58;;;;;;;4.60;3.63;;;6.90;99.90;;;;;;5004707;28;20477;-82
2021/12/06 02:12:29;;;;;;;6.70;3.47;;;6.90;99.90;;;;;;4997335;28;20471;-82
2021/12/06 02:15:03;;;;;;;4.27;3.60;;;6.90;99.90;;;;;;4998934;28;20465;-82
2021/12/06 02:17:36;;;;;;;5.23;4.20;;;6.80;99.90;;;;;;4999334;28;20453;-83
2021/12/06 02:20:09;;;;;;;3.97;3.60;;;7.10;99.90;;;;;;5005949;28;20485;-83
2021/12/06 02:22:39;;;;;;;6.07;3.90;;;6.90;99.90;;;;;;4998156;28;20451;-84
2021/12/06 02:25:14;;;;;;;4.20;3.50;;;6.90;99.90;;;;;;4999570;28;20807;-82
2021/12/06 02:27:43;;;;;;;4.03;3.67;;;6.90;99.90;;;;;;5004968;28;20637;-83
2021/12/06 02:30:13;;;;;;;4.83;2.90;;;6.90;99.90;;;;;;5002159;28;20473;-82
2021/12/06 02:32:43;;;;;;;4.27;3.40;;;6.90;99.90;;;;;;5001043;28;20622;-82
2021/12/06 02:35:16;;;;;;;5.93;3.73;;;6.80;99.90;;;;;;5000109;28;20569;-83
2021/12/06 02:37:47;;;;;;;8.80;4.70;;;6.80;99.90;;;;;;5001793;28;20983;-82
2021/12/06 02:40:19;;;;;;;10.53;4.60;;;7.10;99.90;;;;;;4995788;28;20481;-82
2021/12/06 02:42:48;;;;;;;5.03;4.53;;;6.80;99.90;;;;;;4999181;28;20462;-83
2021/12/06 02:45:20;;;;;;;9.23;5.80;;;6.90;99.90;;;;;;4998305;28;20496;-83
2021/12/06 02:47:53;;;;;;;13.73;6.37;;;7.10;99.90;;;;;;5003135;28;20806;-81
2021/12/06 02:50:24;;;;;;;7.13;5.53;;;6.90;99.90;;;;;;4998765;28;20492;-81
2021/12/06 02:52:54;;;;;;;7.47;5.90;;;6.80;99.90;;;;;;5001177;28;20446;-81
2021/12/06 02:55:31;;;;;;;8.90;6.60;;;6.90;99.90;;;;;;5000605;28;21256;-80
2021/12/06 02:58:02;;;;;;;6.90;4.80;;;7.10;99.90;;;;;;4999429;28;20449;-82
2021/12/06 03:00:35;;;;;;;8.87;6.37;;;6.90;99.90;;;;;;5002999;28;20521;-82
2021/12/06 03:03:04;;;;;;;6.90;5.87;;;6.90;99.90;;;;;;4997916;28;20527;-83
2021/12/06 03:05:32;;;;;;;7.50;5.07;;;6.90;99.90;;;;;;4999927;28;21044;-83
2021/12/06 03:08:02;;;;;;;11.83;5.27;;;6.80;99.90;;;;;;4992405;28;20485;-81
2021/12/06 03:10:32;;;;;;;11.10;5.80;;;6.80;99.90;;;;;;4999335;28;21004;-84
2021/12/06 03:13:01;;;;;;;7.60;5.80;;;6.90;99.90;;;;;;4999343;28;20449;-80
2021/12/06 03:15:30;;;;;;;8.43;5.40;;;6.80;99.90;;;;;;4999928;28;20945;-80
2021/12/06 03:17:58;;;;;;;13.27;5.83;;;6.90;99.90;;;;;;5002216;28;20545;-82
2021/12/06 03:20:26;;;;;;;11.43;6.83;;;6.90;99.90;;;;;;5006844;28;20480;-82
2021/12/06 03:22:55;;;;;;;8.97;6.03;;;6.80;99.90;;;;;;5001460;28;20484;-83
2021/12/06 03:25:24;;;;;;;7.07;5.10;;;6.80;99.90;;;;;;5009181;28;20452;-82
2021/12/06 03:27:52;;;;;;;10.73;5.50;;;6.90;99.90;;;;;;4998294;28;20490;-83
2021/12/06 03:30:21;;;;;;;19.63;6.40;;;6.90;99.90;;;;;;4998722;28;20874;-83
2021/12/06 03:32:49;;;;;;;10.33;6.40;;;7.00;99.90;;;;;;4999311;28;20540;-81
2021/12/06 03:35:17;;;;;;;11.73;7.33;;;6.90;99.90;;;;;;5004358;28;20463;-82
2021/12/06 03:37:46;;;;;;;13.77;6.67;;;6.90;99.90;;;;;;5003564;28;20516;-82
2021/12/06 03:40:14;;;;;;;11.93;6.90;;;6.80;99.90;;;;;;4999923;28;20491;-81
2021/12/06 03:42:44;;;;;;;8.47;6.27;;;6.90;99.90;;;;;;4996432;28;20472;-80
2021/12/06 03:45:13;;;;;;;9.13;5.83;;;6.90;99.90;;;;;;4996825;28;21035;-80
2021/12/06 03:47:42;;;;;;;9.37;5.30;;;6.80;99.90;;;;;;4995510;28;20994;-81
2021/12/06 03:50:13;;;;;;;11.53;6.37;;;7.10;99.90;;;;;;4998820;28;20469;-81
2021/12/06 03:52:41;;;;;;;7.57;6.37;;;6.80;99.90;;;;;;5007007;28;21079;-81
2021/12/06 03:55:10;;;;;;;12.50;6.50;;;6.80;99.90;;;;;;4996920;28;20477;-83
2021/12/06 03:57:38;;;;;;;10.60;6.00;;;6.90;99.90;;;;;;5000021;28;20948;-83
2021/12/06 04:00:10;;;;;;;8.27;6.80;;;6.90;99.90;;;;;;4998690;28;20481;-83
2021/12/06 04:02:39;;;;;;;7.67;5.63;;;6.80;99.90;;;;;;4999973;28;20461;-82
2021/12/06 04:05:08;;;;;;;10.10;6.23;;;6.80;99.90;;;;;;5006226;28;20461;-82
2021/12/06 04:07:37;;;;;;;13.10;6.60;;;6.80;99.90;;;;;;5004007;28;20485;-83
2021/12/06 04:10:08;;;;;;;11.17;6.73;;;6.80;99.90;;;;;;5005043;28;20539;-83
2021/12/06 04:12:36;;;;;;;6.50;5.73;;;6.90;99.90;;;;;;5004455;28;20668;-82
2021/12/06 04:15:07;;;;;;;6.90;5.70;;;6.90;99.90;;;;;;5002261;28;20465;-80
2021/12/06 04:17:37;;;;;;;10.20;5.40;;;6.80;99.90;;;;;;5001029;28;20467;-81
2021/12/06 04:20:07;;;;;;;9.03;5.03;;;6.80;99.90;;;;;;5005183;28;20552;-83
2021/12/06 04:22:36;;;;;;;10.70;6.27;;;6.80;99.90;;;;;;5011290;28;20449;-82
2021/12/06 04:25:07;;;;;;;9.23;6.10;;;6.90;99.90;;;;;;5012231;28;20441;-82
2021/12/06 04:27:35;;;;;;;13.10;6.10;;;6.90;99.90;;;;;;5005214;28;21003;-82
2021/12/06 04:30:08;;;;;;;8.50;5.73;;;6.80;99.90;;;;;;4991967;28;20509;-82
2021/12/06 04:32:38;;;;;;;11.20;6.10;;;6.90;99.90;;;;;;5003667;28;21283;-83
2021/12/06 04:35:07;;;;;;;11.07;6.60;;;7.00;99.90;;;;;;5001749;28;20465;-83
2021/12/06 04:37:36;;;;;;;9.10;6.40;;;6.80;99.90;;;;;;5005987;28;20479;-80
2021/12/06 04:40:05;;;;;;;10.00;6.60;;;6.90;99.90;;;;;;5002625;28;20535;-82
2021/12/06 04:42:34;;;;;;;10.90;6.40;;;6.80;99.90;;;;;;4994332;28;20470;-82
2021/12/06 04:45:02;;;;;;;7.93;5.60;;;6.80;99.90;;;;;;5000903;28;20464;-81
2021/12/06 04:47:31;;;;;;;8.10;6.50;;;6.80;99.90;;;;;;5002256;28;20456;-80
2021/12/06 04:50:00;;;;;;;11.50;6.50;;;7.10;99.90;;;;;;4999815;28;20473;-83
2021/12/06 04:52:28;;;;;;;7.67;5.80;;;6.90;99.90;;;;;;5001782;28;20457;-81
2021/12/06 04:55:00;;;;;;;7.13;6.33;;;7.00;99.90;;;;;;5011941;28;20464;-81
2021/12/06 04:57:35;;;;;;;8.17;5.50;;;6.90;99.90;;;;;;4999459;28;20518;-81
2021/12/06 05:00:09;;;;;;;11.80;5.90;;;6.90;99.90;;;;;;5004998;28;20481;-79
2021/12/06 05:02:39;;;;;;;8.17;5.70;;;6.90;99.90;;;;;;5004826;28;20453;-81
2021/12/06 05:05:12;;;;;;;8.30;5.27;;;6.90;99.90;;;;;;5005112;28;20452;-81
2021/12/06 05:07:44;;;;;;;14.37;5.60;;;6.90;99.90;;;;;;5001058;28;20799;-82
2021/12/06 05:10:14;;;;;;;9.40;5.47;;;6.90;99.90;;;;;;5002641;28;20596;-80
2021/12/06 05:12:43;;;;;;;6.70;4.50;;;6.90;99.90;;;;;;5004201;28;20477;-81
2021/12/06 05:15:13;;;;;;;9.57;5.50;;;7.00;99.90;;;;;;5001632;28;20462;-82
2021/12/06 05:17:43;;;;;;;6.97;4.80;;;6.90;99.90;;;;;;5005610;28;20446;-81
2021/12/06 05:20:14;;;;;;;7.37;5.60;;;7.20;99.90;;;;;;5001798;28;20496;-82
2021/12/06 05:22:43;;;;;;;9.77;5.00;;;7.00;99.90;;;;;;5005017;28;20820;-82
2021/12/06 05:25:12;;;;;;;6.57;4.67;;;7.00;99.90;;;;;;5004428;28;20454;-81
2021/12/06 05:27:40;;;;;;;6.50;4.47;;;6.90;99.90;;;;;;5009119;28;20487;-81
2021/12/06 05:30:11;;;;;;;6.47;4.60;;;6.90;99.90;;;;;;5005265;28;20477;-81
2021/12/06 05:32:41;;;;;;;6.23;3.97;;;6.90;99.90;;;;;;5009033;28;20453;-81
2021/12/06 05:35:13;;;;;;;5.33;4.33;;;6.90;99.90;;;;;;5003813;28;21066;-82
2021/12/06 05:37:43;;;;;;;9.50;4.30;;;7.00;99.90;;;;;;5001489;28;20465;-82
2021/12/06 05:40:15;;;;;;;5.50;4.70;;;7.20;99.90;;;;;;5007277;28;20597;-81
2021/12/06 05:42:44;;;;;;;6.33;4.50;;;7.30;99.90;;;;;;5008379;28;20452;-79
2021/12/06 05:45:14;;;;;;;5.00;4.23;;;7.00;99.90;;;;;;5007645;28;20446;-80
2021/12/06 05:47:42;;;;;;;6.05;4.78;;;7.00;99.90;;;;;;5005704;28;20954;-82
2021/12/06 05:50:13;;;;;;;6.97;5.63;;;6.90;99.90;;;;;;5005831;28;20522;-83
2021/12/06 05:52:41;;;;;;;5.90;4.60;;;6.90;99.90;;;;;;5007090;28;20329;-82
2021/12/06 05:55:11;;;;;;;6.00;4.43;;;6.90;99.90;;;;;;5011645;28;20461;-85
2021/12/06 05:57:42;;;;;;;5.90;4.70;;;7.00;99.90;;;;;;4999103;28;20462;-82
2021/12/06 06:00:14;;;;;;;5.70;4.30;;;6.90;99.90;;;;;;5008340;28;20685;-82
2021/12/06 06:02:42;;;;;;;4.80;4.40;;;6.90;99.90;;;;;;5007317;28;20992;-82
2021/12/06 06:05:13;;;;;;;7.23;4.97;;;7.00;99.90;;;;;;5007931;28;20469;-82
2021/12/06 06:07:41;;;;;;;6.57;4.70;;;7.00;99.90;;;;;;5005926;28;20459;-82
2021/12/06 06:10:10;;;;;;;6.30;4.57;;;7.00;99.90;;;;;;5005906;28;20881;-83
2021/12/06 06:12:38;;;;;;;9.60;6.00;;;7.00;99.90;;;;;;4998054;28;20455;-82
2021/12/06 06:15:07;;;;;;;6.37;4.20;;;7.00;99.90;;;;;;5008526;28;20450;-82
2021/12/06 06:17:42;;;;;;;5.00;4.47;;;7.10;99.90;;;;;;5004289;28;20635;-82
2021/12/06 06:20:16;;;;;;;7.80;5.88;;;7.00;99.90;;;;;;4999500;28;20482;-81
2021/12/06 06:22:44;;;;;;;7.77;5.20;;;6.90;99.90;;;;;;5006212;28;20210;-82
2021/12/06 06:25:14;;;;;;;7.03;5.57;;;7.00;99.90;;;;;;4999083;28;20467;-79
2021/12/06 06:27:43;;;;;;;4.97;4.37;;;7.00;99.90;;;;;;5000285;28;20479;-82
2021/12/06 06:30:12;;;;;;;5.30;4.40;;;7.00;99.90;;;;;;5013175;28;20500;-81
2021/12/06 06:32:41;;;;;;;6.77;4.33;;;7.10;99.90;;;;;;5021682;28;20462;-82
2021/12/06 06:35:10;;;;;;;6.03;4.40;;;7.00;99.90;;;;;;5006626;28;20972;-83
2021/12/06 06:37:39;;;;;;;6.27;4.53;;;7.00;99.90;;;;;;5004825;28;20548;-84
2021/12/06 06:40:09;;;;;;;6.53;4.77;;;7.10;99.90;;;;;;5001632;28;20476;-83
2021/12/06 06:42:38;;;;;;;5.77;4.50;;;7.10;99.90;;;;;;5008015;28;20458;-81
2021/12/06 06:45:11;;;;;;;7.70;4.73;;;7.00;99.90;;;;;;5011536;28;20453;-83
2021/12/06 06:47:39;;;;;;;5.47;4.77;;;7.00;99.90;;;;;;5017970;28;20854;-82
2021/12/06 06:50:09;;;;;;;5.20;4.27;;;7.00;99.90;;;;;;5010955;28;20480;-82
2021/12/06 06:52:39;;;;;;;4.23;3.83;;;7.00;99.90;;;;;;5009376;28;20453;-83
2021/12/06 06:55:09;;;;;;;6.83;5.83;;;7.00;99.90;;;;;;5006874;28;20464;-82
2021/12/06 06:57:38;;;;;;;9.77;4.87;;;7.00;99.90;;;;;;5015490;28;20457;-83
2021/12/06 07:00:09;;;;;;;5.20;4.00;;;7.00;99.90;;;;;;5024095;28;20475;-84
2021/12/06 07:02:37;;;;;;;6.90;4.30;;;7.00;99.90;;;;;;4995890;28;20466;-84
2021/12/06 07:05:07;;;;;;;9.70;5.73;;;7.10;99.90;;;;;;5024005;28;20565;-82
2021/12/06 07:07:36;;;;;;;4.70;4.00;;;7.00;99.90;;;;;;5004167;28;20500;-83
2021/12/06 07:10:07;;;;;;;8.23;5.07;;;7.00;99.90;;;;;;4996782;28;20526;-83
2021/12/06 07:12:42;;;;;;;6.80;5.17;;;7.00;99.90;;;;;;5003304;28;20471;-81
2021/12/06 07:15:13;;;;;;;10.07;6.78;;;7.00;99.90;;;;;;5001803;28;20468;-83
2021/12/06 07:17:41;;;;;;;5.70;5.07;;;7.00;99.90;;;;;;4998393;28;20214;-82
2021/12/06 07:20:11;;;;;;;6.57;5.20;;;7.00;99.90;;;;;;5003233;28;20485;-81
2021/12/06 07:22:39;;;;;;;6.23;5.50;;;7.00;99.90;;;;;;5011761;28;21086;-82
2021/12/06 07:25:11;;;;;;;9.43;5.10;;;7.00;99.90;;;;;;4997523;28;20473;-82
2021/12/06 07:27:40;;;;;;;6.40;4.97;;;7.00;99.90;;;;;;5003427;28;20477;-84
2021/12/06 07:30:11;;;;;;;6.23;4.40;;;7.00;99.90;;;;;;5023707;28;20484;-83
2021/12/06 07:32:40;;;;;;;10.20;4.83;;;7.00;99.90;;;;;;5009704;28;20466;-83
2021/12/06 07:35:09;;;;;;;7.10;6.07;;;7.00;99.90;;;;;;5004058;28;20455;-83
2021/12/06 07:37:37;;;;;;;7.80;5.13;;;7.00;99.90;;;;;;4992973;28;20458;-83
2021/12/06 07:40:11;;;;;;;7.60;5.27;;;7.00;99.90;;;;;;4995736;28;20487;-84
2021/12/06 07:42:39;;;;;;;6.50;5.70;;;7.00;99.90;;;;;;5007649;28;20912;-82
2021/12/06 07:45:10;;;;;;;6.80;4.40;;;7.00;99.90;;;;;;4997418;28;20541;-84
2021/12/06 07:47:38;;;;;;;7.87;4.77;;;7.00;99.90;;;;;;4999319;28;21047;-84
2021/12/06 07:50:11;;;;;;;17.60;5.23;;;7.10;99.90;;;;;;5008296;28;20477;-83
2021/12/06 07:52:40;;;;;;;7.60;4.93;;;7.10;99.90;;;;;;5000994;28;20476;-83
2021/12/06 07:55:13;;;;;;;7.30;5.23;;;7.10;99.90;;;;;;5005137;28;20464;-83
2021/12/06 07:57:42;;;;;;;5.40;4.40;;;7.10;99.90;;;;;;4989127;28;20925;-82
2021/12/06 08:00:12;;;;;;;6.87;4.53;;;7.10;99.90;;;;;;5007157;28;20485;-82
2021/12/06 08:02:41;;;;;;;6.37;4.60;;;7.10;99.90;;;;;;4997909;28;20468;-81
2021/12/06 08:05:31;;;;;;;5.73;4.23;;;7.10;99.90;;;;;;5000341;28;20466;-83
2021/12/06 08:08:02;;;;;;;7.60;4.60;;;7.10;99.90;;;;;;4999621;28;20458;-83
2021/12/06 08:10:34;;;;;;;7.53;4.83;;;7.10;99.90;;;;;;4995408;28;20493;-80
2021/12/06 08:13:02;;;;;;;10.25;5.95;;;7.10;99.90;;;;;;4997933;28;20467;-82
2021/12/06 08:15:31;;;;;;;6.50;4.77;;;7.00;99.90;;;;;;5003016;28;20594;-83
2021/12/06 08:18:00;;;;;;;9.57;5.07;;;7.10;99.90;;;;;;5008977;28;20455;-82
2021/12/06 08:20:28;;;;;;;9.83;5.87;;;7.10;99.90;;;;;;5000595;28;20564;-82
2021/12/06 08:22:56;;;;;;;10.30;4.60;;;7.10;99.90;;;;;;5006066;28;20469;-84
2021/12/06 08:25:25;;;;;;;8.63;4.60;;;7.10;99.90;;;;;;5001346;28;20626;-83
2021/12/06 08:27:54;;;;;;;7.47;4.50;;;7.10;99.90;;;;;;4992908;28;21105;-82
2021/12/06 08:30:24;;;;;;;6.10;5.00;;;7.10;99.90;;;;;;4992138;28;20588;-83
2021/12/06 08:32:55;;;;;;;8.50;6.20;;;7.10;99.90;;;;;;4997807;28;20988;-82
2021/12/06 08:35:36;;;;;;;9.63;6.00;;;7.20;99.90;;;;;;4998049;28;20968;-82
2021/12/06 08:38:05;;;;;;;9.03;6.33;;;7.10;99.90;;;;;;4999821;28;20443;-82
2021/12/06 08:40:34;;;;;;;7.37;5.03;;;7.10;99.90;;;;;;5022564;28;20572;-81
2021/12/06 08:43:04;;;;;;;8.23;4.77;;;7.10;99.90;;;;;;4997421;28;20471;-82
2021/12/06 08:45:33;;;;;;;5.77;5.07;;;7.10;99.90;;;;;;4998176;28;20457;-82
2021/12/06 08:48:02;;;;;;;10.50;5.93;;;7.10;99.90;;;;;;4998580;28;20461;-81
2021/12/06 08:50:31;;;;;;;5.60;4.67;;;7.10;99.90;;;;;;5005545;28;20492;-82
2021/12/06 08:52:59;;;;;;;8.33;5.70;;;7.10;99.90;;;;;;5002801;28;20485;-82
2021/12/06 08:55:28;;;;;;;9.97;6.97;;;7.10;99.90;;;;;;5004939;28;20463;-84
2021/12/06 08:57:56;;;;;;;8.87;4.87;;;7.20;99.90;;;;;;5000259;28;20465;-82
2021/12/06 09:00:29;;;;;;;11.40;7.20;;;7.10;1.00;;;;;;5002097;28;21813;-83
2021/12/06 09:02:57;;;;;;;9.20;5.97;;;7.10;99.90;;;;;;5000919;28;20466;-83
2021/12/06 09:05:31;;;;;;;9.60;6.07;;;7.10;1.00;;;;;;5003127;28;20475;-83
2021/12/06 09:07:59;;;;;;;9.90;6.47;;;7.20;1.00;;;;;;5007275;28;20456;-81
2021/12/06 09:10:28;;;;;;;8.10;5.60;;;7.20;1.00;;;;;;5002334;28;21040;-82
2021/12/06 09:12:57;;;;;;;10.03;5.43;;;7.20;1.00;;;;;;5000137;28;20462;-83
2021/12/06 09:15:27;;;;;;;11.48;7.60;;;7.20;99.90;;;;;;4994868;28;22130;-84
2021/12/06 09:17:56;;;;;;;7.73;5.70;;;7.10;1.00;;;;;;5008865;28;20230;-84
2021/12/06 09:20:30;;;;;;;12.27;6.70;;;7.10;1.00;;;;;;5000190;28;20483;-81
2021/12/06 09:22:58;;;;;;;15.00;8.73;;;7.20;1.00;;;;;;5000760;28;21051;-82
2021/12/06 09:25:28;;;;;;;8.13;5.43;;;7.10;1.00;;;;;;5001890;28;20303;-81
2021/12/06 09:27:57;;;;;;;6.23;5.00;;;7.20;99.90;;;;;;5007502;28;20529;-83
2021/12/06 09:30:30;;;;;;;7.83;5.10;;;7.30;1.00;;;;;;5000787;28;21033;-82
2021/12/06 09:33:00;;;;;;;10.53;5.57;;;7.30;99.90;;;;;;5008081;28;20475;-84
2021/12/06 09:35:35;;;;;;;9.57;5.20;;;7.40;99.90;;;;;;5000283;28;21020;-83
2021/12/06 09:38:04;;;;;;;9.33;5.20;;;7.40;1.00;;;;;;5001789;28;20446;-83
2021/12/06 09:40:35;;;;;;;10.00;5.70;;;7.50;1.00;;;;;;4991525;28;21123;-84
2021/12/06 09:43:07;;;;;;;11.67;5.93;;;7.50;99.90;;;;;;5007214;28;20445;-84
2021/12/06 09:45:37;;;;;;;11.93;4.87;;;7.50;1.00;;;;;;5001797;28;20462;-83
2021/12/06 09:48:06;;;;;;;10.07;4.80;;;7.60;99.90;;;;;;5003404;28;20530;-83
2021/12/06 09:50:39;;;;;;;9.20;4.90;;;7.70;99.90;;;;;;5000112;28;20482;-83
2021/12/06 09:53:12;;;;;;;9.10;4.57;;;7.60;99.90;;;;;;5010358;28;20455;-85
2021/12/06 09:55:42;;;;;;;10.43;4.97;;;7.60;99.90;;;;;;5003310;28;21006;-83
2021/12/06 09:58:11;;;;;;;9.73;4.63;;;7.60;99.90;;;;;;4999924;28;20470;-82
2021/12/06 10:00:44;;;;;;;7.50;4.17;;;7.60;99.90;;;;;;4998446;28;21053;-82
2021/12/06 10:03:16;;;;;;;6.67;3.20;;;7.60;99.90;;;;;;4997712;28;20589;-83
2021/12/06 10:05:44;;;;;;;5.50;3.33;;;7.70;99.90;;;;;;4991793;28;21012;-84
2021/12/06 10:08:13;;;;;;;4.30;2.90;;;7.60;99.90;;;;;;5004389;28;21062;-84
2021/12/06 10:10:41;;;;;;;5.93;3.10;;;7.50;99.90;;;;;;5005733;28;20541;-83
2021/12/06 10:13:09;;;;;;;3.23;2.13;;;7.50;99.90;;;;;;5001517;28;20473;-82
2021/12/06 10:15:41;;;;;;;5.43;2.67;;;7.50;99.90;;;;;;4995698;28;20503;-80
2021/12/06 10:18:16;;;;;;;4.40;2.83;;;7.50;99.90;;;;;;4998098;28;21675;-82
2021/12/06 10:20:45;;;;;;;4.63;3.50;;;7.50;99.90;;;;;;4997715;28;20466;-84
2021/12/06 10:23:15;;;;;;;6.17;3.10;;;7.50;99.90;;;;;;5000431;28;20721;-84
2021/12/06 10:25:46;;;;;;;6.53;4.23;;;7.50;99.90;;;;;;5003695;28;20470;-83
2021/12/06 10:28:16;;;;;;;5.50;3.50;;;7.50;99.90;;;;;;4996214;28;20474;-80
2021/12/06 10:30:49;;;;;;;8.60;3.73;;;7.30;99.90;;;;;;5002469;28;20537;-82
2021/12/06 10:33:23;;;;;;;5.80;3.53;;;7.10;99.90;;;;;;5000872;28;20983;-81
2021/12/06 10:35:54;;;;;;;5.33;2.93;;;7.20;99.90;;;;;;4998924;28;20455;-82
2021/12/06 10:38:24;;;;;;;4.33;3.20;;;7.30;99.90;;;;;;5006207;28;20459;-83
2021/12/06 10:40:57;;;;;;;5.80;3.80;;;7.40;99.90;;;;;;5008118;28;20875;-84
2021/12/06 10:43:26;;;;;;;4.80;2.60;;;7.60;99.90;;;;;;5005366;28;21014;-83
2021/12/06 10:45:57;;;;;;;6.63;4.27;;;7.80;99.90;;;;;;4998104;28;20474;-84
2021/12/06 10:48:29;;;;;;;6.37;3.63;;;8.00;99.90;;;;;;5000163;28;20479;-82
2021/12/06 10:51:01;;;;;;;4.73;3.07;;;8.20;99.90;;;;;;5000991;28;20483;-84
2021/12/06 10:53:35;;;;;;;4.50;3.10;;;8.40;99.90;;;;;;5002778;28;20468;-82
2021/12/06 10:56:08;;;;;;;3.10;2.60;;;8.60;99.90;;;;;;5001846;28;21070;-84
2021/12/06 10:58:37;;;;;;;6.30;3.17;;;9.00;99.90;;;;;;5002284;28;20452;-83
2021/12/06 11:01:07;;;;;;;5.40;4.00;;;9.10;99.90;;;;;;4994031;28;20482;-83
2021/12/06 11:03:42;;;;;;;4.93;2.90;;;9.10;99.90;;;;;;4999342;28;21063;-84
2021/12/06 11:06:13;;;;;;;6.80;3.17;;;8.90;99.90;;;;;;4994588;28;20991;-83
2021/12/06 11:08:43;;;;;;;6.43;2.77;;;8.80;99.90;;;;;;5000535;28;20583;-83
2021/12/06 11:11:15;;;;;;;5.50;1.77;;;8.60;99.90;;;;;;4999214;28;20480;-83
2021/12/06 11:13:47;;;;;;;3.93;2.00;;;8.70;99.90;;;;;;4996341;28;20464;-81
2021/12/06 11:16:17;;;;;;;3.50;1.83;;;9.00;99.90;;;;;;4988274;28;20464;-81
2021/12/06 11:18:51;;;;;;;2.53;1.40;;;9.10;99.90;;;;;;5010742;28;20451;-84
2021/12/06 11:21:30;;;;;;;2.20;1.47;;;9.40;99.90;;;;;;5002649;28;21038;-81
2021/12/06 11:24:02;;;;;;;3.37;2.17;;;9.40;99.90;;;;;;5000881;28;20467;-87
2021/12/06 11:26:31;;;;;;;2.37;1.80;;;9.40;99.90;;;;;;5006578;28;20985;-84
2021/12/06 11:29:08;;;;;;;3.20;1.80;;;9.40;99.90;;;;;;5001301;28;20479;-83
2021/12/06 11:31:39;;;;;;;3.73;2.47;;;9.30;99.90;;;;;;4997856;28;20880;-83
2021/12/06 11:34:10;;;;;;;3.27;2.53;;;9.30;99.90;;;;;;5002394;28;20468;-83
2021/12/06 11:36:43;;;;;;;2.30;1.60;;;9.40;99.90;;;;;;5002294;28;20458;-83
2021/12/06 11:39:15;;;;;;;2.23;1.70;;;9.60;99.90;;;;;;5005783;28;20956;-81
2021/12/06 11:41:46;;;;;;;2.33;1.43;;;9.70;99.90;;;;;;4995869;28;20475;-83
2021/12/06 11:44:22;;;;;;;3.53;1.80;;;9.80;99.90;;;;;;5002591;28;21003;-82
2021/12/06 11:46:57;;;;;;;2.97;1.20;;;9.70;99.90;;;;;;4993038;28;20457;-83
2021/12/06 11:49:33;;;;;;;2.27;1.70;;;9.80;99.90;;;;;;5000173;28;20487;-83
2021/12/06 11:52:02;;;;;;;3.97;1.53;;;9.90;99.90;;;;;;4998954;28;20485;-84
2021/12/06 11:54:38;;;;;;;2.53;1.40;;;9.80;99.90;;;;;;5000577;28;20464;-84
2021/12/06 11:57:16;;;;;;;1.80;1.10;;;9.70;99.90;;;;;;5004889;28;20462;-84
2021/12/06 11:59:58;;;;;;;2.80;1.00;;;9.50;99.90;;;;;;4998945;28;20611;-83
2021/12/06 12:02:46;;;;;;;2.40;1.83;;;9.30;99.90;;;;;;4999646;28;20548;-84
2021/12/06 12:05:22;;;;;;;3.17;2.27;;;9.30;99.90;;;;;;4999800;28;20785;-83
2021/12/06 12:08:00;;;;;;;4.90;2.63;;;9.20;99.90;;;;;;5001059;28;20536;-82
2021/12/06 12:10:31;;;;;;;2.53;2.20;;;8.80;99.90;;;;;;5002062;28;20512;-83
2021/12/06 12:12:59;;;;;;;6.10;2.47;;;8.80;99.90;;;;;;4995986;28;20473;-82
2021/12/06 12:15:28;;;;;;;6.23;2.30;;;8.50;99.90;;;;;;4996252;28;20480;-82
2021/12/06 12:17:56;;;;;;;5.20;3.00;;;8.30;99.90;;;;;;4998121;28;20474;-83
2021/12/06 12:20:47;;;;;;;4.63;2.37;;;8.30;99.90;;;;;;4999049;28;20485;-82
2021/12/06 12:23:16;;;;;;;4.20;2.13;;;8.10;99.90;;;;;;4996156;28;20491;-82
2021/12/06 12:25:50;;;;;;;2.53;2.03;;;8.20;99.90;;;;;;5013001;28;20465;-83
2021/12/06 12:28:23;;;;;;;3.30;2.03;;;8.20;99.90;;;;;;4999726;28;20462;-82
2021/12/06 12:30:53;;;;;;;2.63;2.20;;;8.20;99.90;;;;;;4997313;28;20506;-84
2021/12/06 12:33:22;;;;;;;3.80;2.43;;;8.10;99.90;;;;;;5008480;28;20528;-84
2021/12/06 12:35:57;;;;;;;3.30;2.10;;;7.90;99.90;;;;;;5001386;28;20480;-83
2021/12/06 12:38:27;;;;;;;1.83;1.70;;;7.70;99.90;;;;;;4998841;28;22393;-82
2021/12/06 12:40:57;;;;;;;2.10;1.90;;;7.80;99.90;;;;;;5009078;28;20493;-85
2021/12/06 12:43:32;;;;;;;4.13;1.93;;;8.00;99.90;;;;;;5004270;28;20461;-83
2021/12/06 12:46:07;;;;;;;4.77;2.43;;;8.20;99.90;;;;;;5001705;28;20991;-83
2021/12/06 12:48:47;;;;;;;4.13;1.73;;;8.00;99.90;;;;;;5005193;28;20459;-82
2021/12/06 12:51:20;;;;;;;2.42;2.10;;;7.90;99.90;;;;;;4999081;28;20467;-83
2021/12/06 12:54:00;;;;;;;1.90;1.60;;;8.00;99.90;;;;;;5000831;28;20240;-83
2021/12/06 12:56:35;;;;;;;2.20;1.57;;;8.30;99.90;;;;;;4998620;28;20969;-81
2021/12/06 12:59:26;;;;;;;2.10;1.60;;;8.50;99.90;;;;;;5005817;28;20597;-82
2021/12/06 13:02:17;;;;;;;1.60;1.50;;;8.60;99.90;;;;;;5002134;28;20461;-83
2021/12/06 13:05:20;;;;;;;1.40;1.30;;;8.60;99.90;;;;;;5008500;28;20460;-82
2021/12/06 13:08:05;;;;;;;2.93;1.60;;;8.80;99.90;;;;;;4995557;28;20475;-81
2021/12/06 13:10:48;;;;;;;2.20;1.40;;;8.90;99.90;;;;;;5003144;28;20483;-83
2021/12/06 13:13:32;;;;;;;1.17;0.80;;;8.90;99.90;;;;;;5005896;28;20475;-82
2021/12/06 13:16:06;;;;;;;1.13;1.13;;;9.00;99.90;;;;;;5008919;28;20461;-81
2021/12/06 13:19:00;;;;;;;1.80;1.40;;;9.10;99.90;;;;;;5002581;28;20497;-83
2021/12/06 13:21:48;;;;;;;2.00;1.20;;;9.20;99.90;;;;;;5001200;28;20469;-82